sensor_id;sensor_type;location;lat;lon;timestamp;temperature;humidity
11855;DHT22;5987;53.140;8.904;2022-09-01T00:01:10;14.60;99.90
11855;DHT22;5987;53.140;8.904;2022-09-01T00:04:18;14.70;99.90
11855;DHT22;5987;53.140;8.904;2022-09-01T00:07:24;14.60;99.90
11855;DHT22;5987;53.140;8.904;2022-09-01T00:10:31;14.50;99.90
11855;DHT22;5987;53.140;8.904;2022-09-01T00:13:37;14.50;99.90
11855;DHT22;5987;53.140;8.904;2022-09-01T00:16:41;14.60;99.90
11855;DHT22;5987;53.140;8.904;2022-09-01T00:19:44;14.50;99.90
11855;DHT22;5987;53.140;8.904;2022-09-01T00:22:48;14.40;99.90
11855;DHT22;5987;53.140;8.904;2022-09-01T00:25:52;14.40;99.90
11855;DHT22;5987;53.140;8.904;2022-09-01T00:28:57;14.40;99.90
11855;DHT22;5987;53.140;8.904;2022-09-01T00:32:02;14.30;99.90
11855;DHT22;5987;53.140;8.904;2022-09-01T00:35:06;14.40;99.90
11855;DHT22;5987;53.140;8.904;2022-09-01T00:38:10;14.40;99.90
11855;DHT22;5987;53.140;8.904;2022-09-01T00:41:15;14.30;99.90
11855;DHT22;5987;53.140;8.904;2022-09-01T00:44:22;14.30;99.90
11855;DHT22;5987;53.140;8.904;2022-09-01T00:47:32;14.30;99.90
11855;DHT22;5987;53.140;8.904;2022-09-01T00:50:36;14.30;99.90
11855;DHT22;5987;53.140;8.904;2022-09-01T00:53:43;14.40;99.90
11855;DHT22;5987;53.140;8.904;2022-09-01T00:56:48;14.30;99.90
11855;DHT22;5987;53.140;8.904;2022-09-01T01:00:04;14.30;99.90
11855;DHT22;5987;53.140;8.904;2022-09-01T01:03:13;14.30;99.90
11855;DHT22;5987;53.140;8.904;2022-09-01T01:06:17;14.40;99.90
11855;DHT22;5987;53.140;8.904;2022-09-01T01:09:37;14.30;99.90
11855;DHT22;5987;53.140;8.904;2022-09-01T01:12:44;14.30;99.90
11855;DHT22;5987;53.140;8.904;2022-09-01T01:15:49;14.40;99.90
11855;DHT22;5987;53.140;8.904;2022-09-01T01:18:53;14.40;99.90
11855;DHT22;5987;53.140;8.904;2022-09-01T01:21:59;14.50;99.90
11855;DHT22;5987;53.140;8.904;2022-09-01T01:25:22;14.30;99.90
11855;DHT22;5987;53.140;8.904;2022-09-01T01:28:29;14.30;99.90
11855;DHT22;5987;53.140;8.904;2022-09-01T01:31:34;14.20;99.90
11855;DHT22;5987;53.140;8.904;2022-09-01T01:34:39;14.20;99.90
11855;DHT22;5987;53.140;8.904;2022-09-01T01:37:49;14.10;99.90
11855;DHT22;5987;53.140;8.904;2022-09-01T01:40:54;14.00;99.90
11855;DHT22;5987;53.140;8.904;2022-09-01T01:43:59;13.90;99.90
11855;DHT22;5987;53.140;8.904;2022-09-01T01:47:10;14.00;99.90
11855;DHT22;5987;53.140;8.904;2022-09-01T01:50:15;14.00;99.90
11855;DHT22;5987;53.140;8.904;2022-09-01T01:53:19;13.90;99.90
11855;DHT22;5987;53.140;8.904;2022-09-01T01:56:25;14.00;99.90
11855;DHT22;5987;53.140;8.904;2022-09-01T01:59:29;13.90;99.90
11855;DHT22;5987;53.140;8.904;2022-09-01T02:02:34;14.10;99.90
11855;DHT22;5987;53.140;8.904;2022-09-01T02:05:39;13.90;99.90
11855;DHT22;5987;53.140;8.904;2022-09-01T02:08:43;13.90;99.90
11855;DHT22;5987;53.140;8.904;2022-09-01T02:11:48;14.00;99.90
11855;DHT22;5987;53.140;8.904;2022-09-01T02:14:57;13.80;99.90
11855;DHT22;5987;53.140;8.904;2022-09-01T02:18:04;13.80;99.90
11855;DHT22;5987;53.140;8.904;2022-09-01T02:21:10;13.80;99.90
11855;DHT22;5987;53.140;8.904;2022-09-01T02:24:19;13.80;99.90
11855;DHT22;5987;53.140;8.904;2022-09-01T02:27:26;13.70;99.90
11855;DHT22;5987;53.140;8.904;2022-09-01T02:30:30;13.60;99.90
11855;DHT22;5987;53.140;8.904;2022-09-01T02:33:35;13.60;99.90
11855;DHT22;5987;53.140;8.904;2022-09-01T02:36:40;13.60;99.90
11855;DHT22;5987;53.140;8.904;2022-09-01T02:39:48;13.60;99.90
11855;DHT22;5987;53.140;8.904;2022-09-01T02:42:53;13.60;99.90
11855;DHT22;5987;53.140;8.904;2022-09-01T02:45:59;13.60;99.90
11855;DHT22;5987;53.140;8.904;2022-09-01T02:49:04;13.60;99.90
11855;DHT22;5987;53.140;8.904;2022-09-01T02:52:09;13.70;99.90
11855;DHT22;5987;53.140;8.904;2022-09-01T02:55:17;13.60;99.90
11855;DHT22;5987;53.140;8.904;2022-09-01T02:58:24;13.50;99.90
11855;DHT22;5987;53.140;8.904;2022-09-01T03:01:31;13.50;99.90
11855;DHT22;5987;53.140;8.904;2022-09-01T03:04:35;13.50;99.90
11855;DHT22;5987;53.140;8.904;2022-09-01T03:07:39;13.40;99.90
11855;DHT22;5987;53.140;8.904;2022-09-01T03:10:44;13.50;99.90
11855;DHT22;5987;53.140;8.904;2022-09-01T03:13:50;13.40;99.90
11855;DHT22;5987;53.140;8.904;2022-09-01T03:16:54;13.40;99.90
11855;DHT22;5987;53.140;8.904;2022-09-01T03:19:58;13.40;99.90
11855;DHT22;5987;53.140;8.904;2022-09-01T03:23:04;13.30;99.90
11855;DHT22;5987;53.140;8.904;2022-09-01T03:26:10;13.40;99.90
11855;DHT22;5987;53.140;8.904;2022-09-01T03:29:15;13.30;99.90
11855;DHT22;5987;53.140;8.904;2022-09-01T03:32:19;13.30;99.90
11855;DHT22;5987;53.140;8.904;2022-09-01T03:35:23;13.30;99.90
11855;DHT22;5987;53.140;8.904;2022-09-01T03:38:29;13.30;99.90
11855;DHT22;5987;53.140;8.904;2022-09-01T03:41:33;13.30;99.90
11855;DHT22;5987;53.140;8.904;2022-09-01T03:44:40;13.30;99.90
11855;DHT22;5987;53.140;8.904;2022-09-01T03:47:48;13.20;99.90
11855;DHT22;5987;53.140;8.904;2022-09-01T03:50:52;13.20;99.90
11855;DHT22;5987;53.140;8.904;2022-09-01T03:53:56;13.20;99.90
11855;DHT22;5987;53.140;8.904;2022-09-01T03:57:00;13.20;99.90
11855;DHT22;5987;53.140;8.904;2022-09-01T04:00:09;13.10;99.90
11855;DHT22;5987;53.140;8.904;2022-09-01T04:03:23;13.20;99.90
11855;DHT22;5987;53.140;8.904;2022-09-01T04:06:30;13.10;99.90
11855;DHT22;5987;53.140;8.904;2022-09-01T04:09:33;13.20;99.90
11855;DHT22;5987;53.140;8.904;2022-09-01T04:12:37;13.10;99.90
11855;DHT22;5987;53.140;8.904;2022-09-01T04:15:42;13.10;99.90
11855;DHT22;5987;53.140;8.904;2022-09-01T04:18:46;13.10;99.90
11855;DHT22;5987;53.140;8.904;2022-09-01T04:21:53;13.10;99.90
11855;DHT22;5987;53.140;8.904;2022-09-01T04:25:00;13.10;99.90
11855;DHT22;5987;53.140;8.904;2022-09-01T04:28:04;13.00;99.90
11855;DHT22;5987;53.140;8.904;2022-09-01T04:31:17;13.10;99.90
11855;DHT22;5987;53.140;8.904;2022-09-01T04:34:22;12.90;99.90
11855;DHT22;5987;53.140;8.904;2022-09-01T04:37:27;12.90;99.90
11855;DHT22;5987;53.140;8.904;2022-09-01T04:40:31;12.90;99.90
11855;DHT22;5987;53.140;8.904;2022-09-01T04:43:35;12.90;99.90
11855;DHT22;5987;53.140;8.904;2022-09-01T04:46:41;12.80;99.90
11855;DHT22;5987;53.140;8.904;2022-09-01T04:49:47;12.80;99.90
11855;DHT22;5987;53.140;8.904;2022-09-01T04:52:54;12.80;99.90
11855;DHT22;5987;53.140;8.904;2022-09-01T04:56:15;12.80;99.90
11855;DHT22;5987;53.140;8.904;2022-09-01T04:59:22;12.90;99.90
11855;DHT22;5987;53.140;8.904;2022-09-01T05:02:29;12.90;99.90
11855;DHT22;5987;53.140;8.904;2022-09-01T05:05:37;12.90;99.90
11855;DHT22;5987;53.140;8.904;2022-09-01T05:08:44;13.00;99.90
11855;DHT22;5987;53.140;8.904;2022-09-01T05:11:48;12.90;99.90
11855;DHT22;5987;53.140;8.904;2022-09-01T05:14:52;12.90;99.90
11855;DHT22;5987;53.140;8.904;2022-09-01T05:17:58;12.90;99.90
11855;DHT22;5987;53.140;8.904;2022-09-01T05:21:10;13.00;99.90
11855;DHT22;5987;53.140;8.904;2022-09-01T05:24:18;13.00;99.90
11855;DHT22;5987;53.140;8.904;2022-09-01T05:27:23;13.10;99.90
11855;DHT22;5987;53.140;8.904;2022-09-01T05:30:29;13.20;99.90
11855;DHT22;5987;53.140;8.904;2022-09-01T05:33:34;13.20;99.90
11855;DHT22;5987;53.140;8.904;2022-09-01T05:36:44;13.20;99.90
11855;DHT22;5987;53.140;8.904;2022-09-01T05:39:51;13.40;99.90
11855;DHT22;5987;53.140;8.904;2022-09-01T05:42:56;13.50;99.90
11855;DHT22;5987;53.140;8.904;2022-09-01T05:46:00;13.60;99.90
11855;DHT22;5987;53.140;8.904;2022-09-01T05:49:11;13.80;99.90
11855;DHT22;5987;53.140;8.904;2022-09-01T05:52:17;14.00;99.90
11855;DHT22;5987;53.140;8.904;2022-09-01T05:55:26;14.10;99.90
11855;DHT22;5987;53.140;8.904;2022-09-01T05:58:36;14.20;99.90
11855;DHT22;5987;53.140;8.904;2022-09-01T06:02:01;14.30;99.90
11855;DHT22;5987;53.140;8.904;2022-09-01T06:05:07;14.50;99.90
11855;DHT22;5987;53.140;8.904;2022-09-01T06:08:12;14.90;99.90
11855;DHT22;5987;53.140;8.904;2022-09-01T06:11:19;15.10;99.90
11855;DHT22;5987;53.140;8.904;2022-09-01T06:14:25;15.20;99.90
11855;DHT22;5987;53.140;8.904;2022-09-01T06:17:29;15.20;99.90
11855;DHT22;5987;53.140;8.904;2022-09-01T06:20:39;15.20;99.90
11855;DHT22;5987;53.140;8.904;2022-09-01T06:23:44;15.30;99.90
11855;DHT22;5987;53.140;8.904;2022-09-01T06:26:49;15.30;99.90
11855;DHT22;5987;53.140;8.904;2022-09-01T06:29:53;15.40;99.90
11855;DHT22;5987;53.140;8.904;2022-09-01T06:32:57;15.50;99.90
11855;DHT22;5987;53.140;8.904;2022-09-01T06:36:04;15.60;99.90
11855;DHT22;5987;53.140;8.904;2022-09-01T06:39:10;15.80;99.90
11855;DHT22;5987;53.140;8.904;2022-09-01T06:42:21;16.00;99.90
11855;DHT22;5987;53.140;8.904;2022-09-01T06:45:25;16.30;99.90
11855;DHT22;5987;53.140;8.904;2022-09-01T06:48:29;16.40;99.90
11855;DHT22;5987;53.140;8.904;2022-09-01T06:51:34;16.50;99.90
11855;DHT22;5987;53.140;8.904;2022-09-01T06:54:38;16.60;99.90
11855;DHT22;5987;53.140;8.904;2022-09-01T06:57:44;16.70;99.90
11855;DHT22;5987;53.140;8.904;2022-09-01T07:01:08;16.90;99.90
11855;DHT22;5987;53.140;8.904;2022-09-01T07:04:17;17.00;99.90
11855;DHT22;5987;53.140;8.904;2022-09-01T07:07:27;17.00;99.90
11855;DHT22;5987;53.140;8.904;2022-09-01T07:10:55;17.20;99.90
11855;DHT22;5987;53.140;8.904;2022-09-01T07:14:19;17.50;99.90
11855;DHT22;5987;53.140;8.904;2022-09-01T07:17:24;17.80;99.90
11855;DHT22;5987;53.140;8.904;2022-09-01T07:20:28;18.10;99.90
11855;DHT22;5987;53.140;8.904;2022-09-01T07:23:59;18.40;99.90
11855;DHT22;5987;53.140;8.904;2022-09-01T07:27:12;18.50;99.90
11855;DHT22;5987;53.140;8.904;2022-09-01T07:30:17;18.50;99.90
11855;DHT22;5987;53.140;8.904;2022-09-01T07:33:26;18.50;99.90
11855;DHT22;5987;53.140;8.904;2022-09-01T07:36:51;18.70;99.90
11855;DHT22;5987;53.140;8.904;2022-09-01T07:40:21;18.60;99.90
11855;DHT22;5987;53.140;8.904;2022-09-01T07:43:50;18.80;99.90
11855;DHT22;5987;53.140;8.904;2022-09-01T07:46:57;19.10;99.90
11855;DHT22;5987;53.140;8.904;2022-09-01T07:50:21;19.40;99.90
11855;DHT22;5987;53.140;8.904;2022-09-01T07:53:42;19.50;99.90
11855;DHT22;5987;53.140;8.904;2022-09-01T07:56:47;19.60;99.90
11855;DHT22;5987;53.140;8.904;2022-09-01T07:59:51;19.80;99.90
11855;DHT22;5987;53.140;8.904;2022-09-01T08:02:56;19.90;99.90
11855;DHT22;5987;53.140;8.904;2022-09-01T08:06:06;19.80;99.90
11855;DHT22;5987;53.140;8.904;2022-09-01T08:09:12;20.00;99.90
11855;DHT22;5987;53.140;8.904;2022-09-01T08:12:38;20.10;99.90
11855;DHT22;5987;53.140;8.904;2022-09-01T08:15:42;20.40;98.30
11855;DHT22;5987;53.140;8.904;2022-09-01T08:19:06;20.40;97.40
11855;DHT22;5987;53.140;8.904;2022-09-01T08:22:17;20.20;97.60
11855;DHT22;5987;53.140;8.904;2022-09-01T08:25:24;20.50;96.60
11855;DHT22;5987;53.140;8.904;2022-09-01T08:28:29;20.60;94.50
11855;DHT22;5987;53.140;8.904;2022-09-01T08:31:33;20.60;93.80
11855;DHT22;5987;53.140;8.904;2022-09-01T08:34:37;20.70;92.60
11855;DHT22;5987;53.140;8.904;2022-09-01T08:37:41;21.00;91.70
11855;DHT22;5987;53.140;8.904;2022-09-01T08:40:51;20.90;91.30
11855;DHT22;5987;53.140;8.904;2022-09-01T08:44:07;21.10;89.80
11855;DHT22;5987;53.140;8.904;2022-09-01T08:47:17;21.30;89.80
11855;DHT22;5987;53.140;8.904;2022-09-01T08:50:41;21.40;89.10
11855;DHT22;5987;53.140;8.904;2022-09-01T08:54:00;21.60;87.20
11855;DHT22;5987;53.140;8.904;2022-09-01T08:57:13;21.70;86.40
11855;DHT22;5987;53.140;8.904;2022-09-01T09:00:25;21.70;85.70
11855;DHT22;5987;53.140;8.904;2022-09-01T09:03:36;22.00;86.60
11855;DHT22;5987;53.140;8.904;2022-09-01T09:06:52;22.30;80.90
11855;DHT22;5987;53.140;8.904;2022-09-01T09:10:11;22.20;81.00
11855;DHT22;5987;53.140;8.904;2022-09-01T09:13:24;22.40;77.60
11855;DHT22;5987;53.140;8.904;2022-09-01T09:16:41;22.20;77.60
11855;DHT22;5987;53.140;8.904;2022-09-01T09:19:54;22.30;76.70
11855;DHT22;5987;53.140;8.904;2022-09-01T09:23:15;22.20;77.50
11855;DHT22;5987;53.140;8.904;2022-09-01T09:26:29;22.60;75.90
11855;DHT22;5987;53.140;8.904;2022-09-01T09:29:50;22.80;75.50
11855;DHT22;5987;53.140;8.904;2022-09-01T09:32:58;22.40;75.80
11855;DHT22;5987;53.140;8.904;2022-09-01T09:36:31;22.60;74.50
11855;DHT22;5987;53.140;8.904;2022-09-01T09:39:37;22.40;73.00
11855;DHT22;5987;53.140;8.904;2022-09-01T09:42:58;22.20;74.40
11855;DHT22;5987;53.140;8.904;2022-09-01T09:46:32;22.10;74.00
11855;DHT22;5987;53.140;8.904;2022-09-01T09:49:38;22.00;73.70
11855;DHT22;5987;53.140;8.904;2022-09-01T09:52:51;22.10;74.10
11855;DHT22;5987;53.140;8.904;2022-09-01T09:56:17;22.10;73.60
11855;DHT22;5987;53.140;8.904;2022-09-01T09:59:27;22.00;73.70
11855;DHT22;5987;53.140;8.904;2022-09-01T10:02:56;22.00;73.30
11855;DHT22;5987;53.140;8.904;2022-09-01T10:06:28;22.00;74.20
11855;DHT22;5987;53.140;8.904;2022-09-01T10:09:36;22.20;74.70
11855;DHT22;5987;53.140;8.904;2022-09-01T10:12:40;22.30;72.20
11855;DHT22;5987;53.140;8.904;2022-09-01T10:15:47;22.30;72.60
11855;DHT22;5987;53.140;8.904;2022-09-01T10:18:57;22.20;73.20
11855;DHT22;5987;53.140;8.904;2022-09-01T10:22:05;22.30;72.90
11855;DHT22;5987;53.140;8.904;2022-09-01T10:25:15;22.30;73.10
11855;DHT22;5987;53.140;8.904;2022-09-01T10:28:22;22.20;73.30
11855;DHT22;5987;53.140;8.904;2022-09-01T10:31:27;22.10;72.50
11855;DHT22;5987;53.140;8.904;2022-09-01T10:34:36;22.10;72.70
11855;DHT22;5987;53.140;8.904;2022-09-01T10:37:45;22.30;72.20
11855;DHT22;5987;53.140;8.904;2022-09-01T10:40:51;22.40;71.10
11855;DHT22;5987;53.140;8.904;2022-09-01T10:44:10;22.50;70.10
11855;DHT22;5987;53.140;8.904;2022-09-01T10:47:25;22.50;71.20
11855;DHT22;5987;53.140;8.904;2022-09-01T10:50:32;22.60;71.10
11855;DHT22;5987;53.140;8.904;2022-09-01T10:53:39;22.60;70.60
11855;DHT22;5987;53.140;8.904;2022-09-01T10:56:46;22.70;70.00
11855;DHT22;5987;53.140;8.904;2022-09-01T10:59:54;22.80;69.40
11855;DHT22;5987;53.140;8.904;2022-09-01T11:04:04;22.90;69.70
11855;DHT22;5987;53.140;8.904;2022-09-01T11:07:29;23.00;68.30
11855;DHT22;5987;53.140;8.904;2022-09-01T11:10:58;23.00;68.00
11855;DHT22;5987;53.140;8.904;2022-09-01T11:14:16;23.00;69.20
11855;DHT22;5987;53.140;8.904;2022-09-01T11:17:24;23.00;68.30
11855;DHT22;5987;53.140;8.904;2022-09-01T11:20:32;23.00;67.40
11855;DHT22;5987;53.140;8.904;2022-09-01T11:23:38;22.70;67.10
11855;DHT22;5987;53.140;8.904;2022-09-01T11:26:48;22.50;68.40
11855;DHT22;5987;53.140;8.904;2022-09-01T11:29:54;22.50;68.00
11855;DHT22;5987;53.140;8.904;2022-09-01T11:33:08;22.60;67.50
11855;DHT22;5987;53.140;8.904;2022-09-01T11:36:28;22.80;67.70
11855;DHT22;5987;53.140;8.904;2022-09-01T11:39:39;23.00;67.00
11855;DHT22;5987;53.140;8.904;2022-09-01T11:42:47;22.90;66.20
11855;DHT22;5987;53.140;8.904;2022-09-01T11:46:04;22.80;67.10
11855;DHT22;5987;53.140;8.904;2022-09-01T11:49:29;22.90;67.20
11855;DHT22;5987;53.140;8.904;2022-09-01T11:52:35;23.00;66.00
11855;DHT22;5987;53.140;8.904;2022-09-01T11:55:44;23.00;67.70
11855;DHT22;5987;53.140;8.904;2022-09-01T11:58:52;23.30;65.40
11855;DHT22;5987;53.140;8.904;2022-09-01T12:01:57;23.40;65.10
11855;DHT22;5987;53.140;8.904;2022-09-01T12:05:02;23.30;64.80
11855;DHT22;5987;53.140;8.904;2022-09-01T12:08:26;23.30;65.60
11855;DHT22;5987;53.140;8.904;2022-09-01T12:11:34;23.10;64.70
11855;DHT22;5987;53.140;8.904;2022-09-01T12:14:39;22.90;65.70
11855;DHT22;5987;53.140;8.904;2022-09-01T12:18:13;22.80;65.80
11855;DHT22;5987;53.140;8.904;2022-09-01T12:21:24;22.60;66.80
11855;DHT22;5987;53.140;8.904;2022-09-01T12:24:33;22.60;66.70
11855;DHT22;5987;53.140;8.904;2022-09-01T12:27:38;22.80;66.60
11855;DHT22;5987;53.140;8.904;2022-09-01T12:30:44;23.00;65.80
11855;DHT22;5987;53.140;8.904;2022-09-01T12:33:48;23.30;64.30
11855;DHT22;5987;53.140;8.904;2022-09-01T12:37:05;23.40;64.30
11855;DHT22;5987;53.140;8.904;2022-09-01T12:40:23;23.30;63.10
11855;DHT22;5987;53.140;8.904;2022-09-01T12:43:35;23.20;62.90
11855;DHT22;5987;53.140;8.904;2022-09-01T12:46:44;23.00;64.20
11855;DHT22;5987;53.140;8.904;2022-09-01T12:49:48;22.90;64.40
11855;DHT22;5987;53.140;8.904;2022-09-01T12:52:54;22.80;65.10
11855;DHT22;5987;53.140;8.904;2022-09-01T12:56:22;22.50;65.70
11855;DHT22;5987;53.140;8.904;2022-09-01T12:59:32;22.80;65.80
11855;DHT22;5987;53.140;8.904;2022-09-01T13:02:42;23.00;65.20
11855;DHT22;5987;53.140;8.904;2022-09-01T13:05:50;23.20;66.00
11855;DHT22;5987;53.140;8.904;2022-09-01T13:08:55;23.20;65.40
11855;DHT22;5987;53.140;8.904;2022-09-01T13:12:10;23.30;64.90
11855;DHT22;5987;53.140;8.904;2022-09-01T13:15:39;23.50;63.30
11855;DHT22;5987;53.140;8.904;2022-09-01T13:18:46;23.50;61.80
11855;DHT22;5987;53.140;8.904;2022-09-01T13:22:10;23.60;64.60
11855;DHT22;5987;53.140;8.904;2022-09-01T13:25:16;23.70;62.90
11855;DHT22;5987;53.140;8.904;2022-09-01T13:28:22;23.70;63.80
11855;DHT22;5987;53.140;8.904;2022-09-01T13:31:31;23.70;62.40
11855;DHT22;5987;53.140;8.904;2022-09-01T13:34:39;23.60;64.00
11855;DHT22;5987;53.140;8.904;2022-09-01T13:37:44;23.80;62.90
11855;DHT22;5987;53.140;8.904;2022-09-01T13:40:49;23.90;62.20
11855;DHT22;5987;53.140;8.904;2022-09-01T13:43:54;24.00;61.60
11855;DHT22;5987;53.140;8.904;2022-09-01T13:46:57;24.10;59.80
11855;DHT22;5987;53.140;8.904;2022-09-01T13:50:22;23.90;59.10
11855;DHT22;5987;53.140;8.904;2022-09-01T13:53:46;23.90;59.30
11855;DHT22;5987;53.140;8.904;2022-09-01T13:56:53;24.00;58.50
11855;DHT22;5987;53.140;8.904;2022-09-01T13:59:57;23.90;59.00
11855;DHT22;5987;53.140;8.904;2022-09-01T14:03:03;24.00;59.10
11855;DHT22;5987;53.140;8.904;2022-09-01T14:06:10;24.30;59.50
11855;DHT22;5987;53.140;8.904;2022-09-01T14:09:15;24.50;59.40
11855;DHT22;5987;53.140;8.904;2022-09-01T14:12:19;24.50;58.40
11855;DHT22;5987;53.140;8.904;2022-09-01T14:15:22;24.40;58.90
11855;DHT22;5987;53.140;8.904;2022-09-01T14:18:28;24.30;59.60
11855;DHT22;5987;53.140;8.904;2022-09-01T14:21:39;24.20;58.60
11855;DHT22;5987;53.140;8.904;2022-09-01T14:24:42;24.40;58.40
11855;DHT22;5987;53.140;8.904;2022-09-01T14:27:46;24.50;58.20
11855;DHT22;5987;53.140;8.904;2022-09-01T14:30:52;24.50;58.10
11855;DHT22;5987;53.140;8.904;2022-09-01T14:33:55;24.40;58.80
11855;DHT22;5987;53.140;8.904;2022-09-01T14:37:00;24.30;58.00
11855;DHT22;5987;53.140;8.904;2022-09-01T14:40:07;24.40;57.80
11855;DHT22;5987;53.140;8.904;2022-09-01T14:43:18;24.30;57.90
11855;DHT22;5987;53.140;8.904;2022-09-01T14:46:23;24.40;58.80
11855;DHT22;5987;53.140;8.904;2022-09-01T14:49:27;24.30;58.80
11855;DHT22;5987;53.140;8.904;2022-09-01T14:52:35;24.10;58.80
11855;DHT22;5987;53.140;8.904;2022-09-01T14:55:39;23.90;59.80
11855;DHT22;5987;53.140;8.904;2022-09-01T14:58:45;23.40;60.80
11855;DHT22;5987;53.140;8.904;2022-09-01T15:01:50;23.30;61.00
11855;DHT22;5987;53.140;8.904;2022-09-01T15:04:54;23.10;62.10
11855;DHT22;5987;53.140;8.904;2022-09-01T15:08:00;23.10;62.00
11855;DHT22;5987;53.140;8.904;2022-09-01T15:11:07;23.30;61.20
11855;DHT22;5987;53.140;8.904;2022-09-01T15:14:13;23.40;60.30
11855;DHT22;5987;53.140;8.904;2022-09-01T15:17:16;23.60;59.60
11855;DHT22;5987;53.140;8.904;2022-09-01T15:20:21;23.80;59.30
11855;DHT22;5987;53.140;8.904;2022-09-01T15:23:44;24.00;59.00
11855;DHT22;5987;53.140;8.904;2022-09-01T15:26:49;24.20;59.10
11855;DHT22;5987;53.140;8.904;2022-09-01T15:29:53;24.30;58.60
11855;DHT22;5987;53.140;8.904;2022-09-01T15:32:56;24.40;58.40
11855;DHT22;5987;53.140;8.904;2022-09-01T15:36:00;24.40;58.60
11855;DHT22;5987;53.140;8.904;2022-09-01T15:39:06;24.10;58.90
11855;DHT22;5987;53.140;8.904;2022-09-01T15:42:11;23.70;59.70
11855;DHT22;5987;53.140;8.904;2022-09-01T15:45:22;23.50;60.20
11855;DHT22;5987;53.140;8.904;2022-09-01T15:48:27;23.30;60.80
11855;DHT22;5987;53.140;8.904;2022-09-01T15:51:33;23.10;61.70
11855;DHT22;5987;53.140;8.904;2022-09-01T15:54:39;23.30;61.40
11855;DHT22;5987;53.140;8.904;2022-09-01T15:57:43;23.40;60.40
11855;DHT22;5987;53.140;8.904;2022-09-01T16:00:47;23.50;59.40
11855;DHT22;5987;53.140;8.904;2022-09-01T16:03:53;23.40;59.60
11855;DHT22;5987;53.140;8.904;2022-09-01T16:06:57;23.40;60.00
11855;DHT22;5987;53.140;8.904;2022-09-01T16:10:04;23.20;60.40
11855;DHT22;5987;53.140;8.904;2022-09-01T16:13:12;22.90;61.10
11855;DHT22;5987;53.140;8.904;2022-09-01T16:16:30;22.80;61.60
11855;DHT22;5987;53.140;8.904;2022-09-01T16:19:48;22.70;61.80
11855;DHT22;5987;53.140;8.904;2022-09-01T16:22:58;22.70;61.70
11855;DHT22;5987;53.140;8.904;2022-09-01T16:26:14;22.80;61.70
11855;DHT22;5987;53.140;8.904;2022-09-01T16:29:22;22.90;61.10
11855;DHT22;5987;53.140;8.904;2022-09-01T16:32:35;22.90;60.80
11855;DHT22;5987;53.140;8.904;2022-09-01T16:35:45;23.00;60.70
11855;DHT22;5987;53.140;8.904;2022-09-01T16:39:02;23.00;60.10
11855;DHT22;5987;53.140;8.904;2022-09-01T16:42:22;23.00;60.50
11855;DHT22;5987;53.140;8.904;2022-09-01T16:45:42;22.90;60.30
11855;DHT22;5987;53.140;8.904;2022-09-01T16:49:05;22.90;59.80
11855;DHT22;5987;53.140;8.904;2022-09-01T16:52:22;22.80;60.40
11855;DHT22;5987;53.140;8.904;2022-09-01T16:55:37;22.80;60.50
11855;DHT22;5987;53.140;8.904;2022-09-01T16:59:02;22.70;60.70
11855;DHT22;5987;53.140;8.904;2022-09-01T17:02:35;22.70;60.70
11855;DHT22;5987;53.140;8.904;2022-09-01T17:05:55;22.70;61.30
11855;DHT22;5987;53.140;8.904;2022-09-01T17:09:08;22.60;61.60
11855;DHT22;5987;53.140;8.904;2022-09-01T17:12:21;22.50;62.00
11855;DHT22;5987;53.140;8.904;2022-09-01T17:15:36;22.40;62.00
11855;DHT22;5987;53.140;8.904;2022-09-01T17:18:44;22.30;62.30
11855;DHT22;5987;53.140;8.904;2022-09-01T17:21:55;22.30;62.70
11855;DHT22;5987;53.140;8.904;2022-09-01T17:25:09;22.20;63.50
11855;DHT22;5987;53.140;8.904;2022-09-01T17:28:25;22.10;64.60
11855;DHT22;5987;53.140;8.904;2022-09-01T17:31:43;22.00;65.20
11855;DHT22;5987;53.140;8.904;2022-09-01T17:35:05;21.90;65.90
11855;DHT22;5987;53.140;8.904;2022-09-01T17:38:26;21.70;66.90
11855;DHT22;5987;53.140;8.904;2022-09-01T17:41:39;21.70;67.60
11855;DHT22;5987;53.140;8.904;2022-09-01T17:44:51;21.60;68.10
11855;DHT22;5987;53.140;8.904;2022-09-01T17:48:05;21.40;68.80
11855;DHT22;5987;53.140;8.904;2022-09-01T17:51:24;21.30;69.40
11855;DHT22;5987;53.140;8.904;2022-09-01T17:54:39;21.20;70.00
11855;DHT22;5987;53.140;8.904;2022-09-01T17:57:51;21.10;70.40
11855;DHT22;5987;53.140;8.904;2022-09-01T18:01:01;20.90;71.20
11855;DHT22;5987;53.140;8.904;2022-09-01T18:04:38;20.70;71.90
11855;DHT22;5987;53.140;8.904;2022-09-01T18:08:01;20.60;72.40
11855;DHT22;5987;53.140;8.904;2022-09-01T18:11:17;20.50;73.20
11855;DHT22;5987;53.140;8.904;2022-09-01T18:14:32;20.40;73.30
11855;DHT22;5987;53.140;8.904;2022-09-01T18:17:43;20.30;73.80
11855;DHT22;5987;53.140;8.904;2022-09-01T18:20:56;20.20;74.20
11855;DHT22;5987;53.140;8.904;2022-09-01T18:24:12;20.10;74.60
11855;DHT22;5987;53.140;8.904;2022-09-01T18:27:17;20.00;75.30
11855;DHT22;5987;53.140;8.904;2022-09-01T18:30:25;19.90;75.90
11855;DHT22;5987;53.140;8.904;2022-09-01T18:33:58;19.90;76.00
11855;DHT22;5987;53.140;8.904;2022-09-01T18:37:16;19.80;76.50
11855;DHT22;5987;53.140;8.904;2022-09-01T18:40:28;19.60;77.20
11855;DHT22;5987;53.140;8.904;2022-09-01T18:43:39;19.50;77.70
11855;DHT22;5987;53.140;8.904;2022-09-01T18:46:52;19.40;78.30
11855;DHT22;5987;53.140;8.904;2022-09-01T18:50:11;19.30;78.70
11855;DHT22;5987;53.140;8.904;2022-09-01T18:53:34;19.30;78.90
11855;DHT22;5987;53.140;8.904;2022-09-01T18:56:48;19.20;79.50
11855;DHT22;5987;53.140;8.904;2022-09-01T19:00:07;19.10;80.10
11855;DHT22;5987;53.140;8.904;2022-09-01T19:03:24;19.10;80.50
11855;DHT22;5987;53.140;8.904;2022-09-01T19:06:43;19.00;80.90
11855;DHT22;5987;53.140;8.904;2022-09-01T19:10:06;19.00;81.50
11855;DHT22;5987;53.140;8.904;2022-09-01T19:13:34;18.90;81.60
11855;DHT22;5987;53.140;8.904;2022-09-01T19:17:00;18.80;82.10
11855;DHT22;5987;53.140;8.904;2022-09-01T19:20:19;18.70;82.80
11855;DHT22;5987;53.140;8.904;2022-09-01T19:23:34;18.60;83.30
11855;DHT22;5987;53.140;8.904;2022-09-01T19:26:47;18.50;84.30
11855;DHT22;5987;53.140;8.904;2022-09-01T19:30:00;18.40;84.70
11855;DHT22;5987;53.140;8.904;2022-09-01T19:33:11;18.30;85.20
11855;DHT22;5987;53.140;8.904;2022-09-01T19:36:27;18.30;85.80
11855;DHT22;5987;53.140;8.904;2022-09-01T19:39:36;18.20;86.40
11855;DHT22;5987;53.140;8.904;2022-09-01T19:42:47;18.10;87.00
11855;DHT22;5987;53.140;8.904;2022-09-01T19:46:03;18.00;87.60
11855;DHT22;5987;53.140;8.904;2022-09-01T19:49:25;17.90;88.40
11855;DHT22;5987;53.140;8.904;2022-09-01T19:52:44;17.80;88.90
11855;DHT22;5987;53.140;8.904;2022-09-01T19:55:57;17.70;89.50
11855;DHT22;5987;53.140;8.904;2022-09-01T19:59:16;17.60;90.10
11855;DHT22;5987;53.140;8.904;2022-09-01T20:02:28;17.60;90.30
11855;DHT22;5987;53.140;8.904;2022-09-01T20:05:40;17.50;90.60
11855;DHT22;5987;53.140;8.904;2022-09-01T20:08:53;17.40;90.90
11855;DHT22;5987;53.140;8.904;2022-09-01T20:12:13;17.40;91.20
11855;DHT22;5987;53.140;8.904;2022-09-01T20:15:35;17.30;91.50
11855;DHT22;5987;53.140;8.904;2022-09-01T20:18:48;17.20;91.90
11855;DHT22;5987;53.140;8.904;2022-09-01T20:22:05;17.20;92.10